createdAt,value
2019-05-09T00:00:26.362Z,73.50
2019-05-09T00:02:54.845Z,73.71
2019-05-09T00:05:25.469Z,72.30
2019-05-09T00:07:53.548Z,73.81
2019-05-09T00:10:38.126Z,75.22
2019-05-09T00:12:54.044Z,74.55
2019-05-09T00:15:24.189Z,74.64
2019-05-09T00:17:53.346Z,75.14
2019-05-09T00:20:29.656Z,74.79
2019-05-09T00:22:58.149Z,74.09
2019-05-09T00:25:26.633Z,76.34
2019-05-09T00:27:55.121Z,73.10
2019-05-09T00:30:43.660Z,74.69
2019-05-09T00:33:14.282Z,75.23
2019-05-09T00:35:44.235Z,77.69
2019-05-09T00:38:13.361Z,79.70
2019-05-09T00:40:55.257Z,79.73
2019-05-09T00:43:13.211Z,79.86
2019-05-09T00:45:46.040Z,78.98
2019-05-09T00:48:16.180Z,80.62
2019-05-09T00:50:44.641Z,79.55
2019-05-09T00:53:17.285Z,77.69
2019-05-09T00:55:45.755Z,80.14
2019-05-09T00:58:14.577Z,80.01
2019-05-09T01:00:43.992Z,79.53
2019-05-09T01:03:14.124Z,79.50
2019-05-09T01:05:43.624Z,78.51
2019-05-09T01:08:13.697Z,77.49
2019-05-09T01:10:43.600Z,78.21
2019-05-09T01:13:14.163Z,79.86
2019-05-09T01:15:44.040Z,77.63
2019-05-09T01:18:13.249Z,78.10
2019-05-09T01:20:43.905Z,79.06
2019-05-09T01:23:14.184Z,77.87
2019-05-09T01:25:43.590Z,77.43
2019-05-09T01:28:13.958Z,78.78
2019-05-09T01:30:43.984Z,78.90
2019-05-09T01:33:24.180Z,79.65
2019-05-09T01:35:54.074Z,78.13
2019-05-09T01:38:23.297Z,78.06
2019-05-09T01:40:53.307Z,78.28
2019-05-09T01:43:24.240Z,76.67
2019-05-09T01:45:54.076Z,78.42
2019-05-09T01:48:23.445Z,76.14
2019-05-09T01:50:53.736Z,77.08
2019-05-09T01:53:24.120Z,78.05
2019-05-09T01:55:58.593Z,76.42
2019-05-09T01:58:34.058Z,76.57
2019-05-09T02:01:04.255Z,76.98
2019-05-09T02:03:33.657Z,77.66
2019-05-09T02:06:03.545Z,75.50
2019-05-09T02:08:34.434Z,77.56
2019-05-09T02:11:03.777Z,76.33
2019-05-09T02:13:33.810Z,76.30
2019-05-09T02:16:06.937Z,76.84
2019-05-09T02:18:37.027Z,76.82
2019-05-09T02:21:05.508Z,75.90
2019-05-09T02:23:34.072Z,77.39
2019-05-09T02:26:04.036Z,77.05
2019-05-09T02:28:34.172Z,75.76
2019-05-09T02:31:05.230Z,76.95
2019-05-09T02:33:34.776Z,75.92
2019-05-09T02:36:03.192Z,76.66
2019-05-09T02:38:31.671Z,75.86
2019-05-09T02:41:00.159Z,75.89
2019-05-09T02:43:29.223Z,76.63
2019-05-09T02:46:11.517Z,75.88
2019-05-09T02:48:39.993Z,77.41
2019-05-09T02:51:09.395Z,77.09
2019-05-09T02:53:39.483Z,77.00
2019-05-09T02:56:09.149Z,77.67
2019-05-09T02:58:48.332Z,76.23
2019-05-09T03:01:18.951Z,77.55
2019-05-09T03:03:48.278Z,77.31
2019-05-09T03:06:19.654Z,76.85
2019-05-09T03:08:49.062Z,76.38
2019-05-09T03:11:18.752Z,78.22
2019-05-09T03:13:49.509Z,77.27
2019-05-09T03:16:19.041Z,78.18
2019-05-09T03:18:49.418Z,77.07
2019-05-09T03:21:19.674Z,76.87
2019-05-09T03:23:49.009Z,77.03
2019-05-09T03:26:19.599Z,77.73
2019-05-09T03:28:49.930Z,78.79
2019-05-09T03:31:20.065Z,77.01
2019-05-09T03:33:50.042Z,78.37
2019-05-09T03:36:18.735Z,78.84
2019-05-09T03:38:47.630Z,76.44
2019-05-09T03:41:17.692Z,77.54
2019-05-09T03:43:48.289Z,77.33
2019-05-09T03:46:28.047Z,78.34
2019-05-09T03:49:00.774Z,77.29
2019-05-09T03:51:29.250Z,77.53
2019-05-09T03:53:57.773Z,77.63
2019-05-09T03:56:31.499Z,77.68
2019-05-09T03:58:59.965Z,77.14
2019-05-09T04:01:28.769Z,77.68
2019-05-09T04:03:58.392Z,77.71
2019-05-09T04:06:28.232Z,77.53
2019-05-09T04:08:58.474Z,78.13
2019-05-09T04:11:27.650Z,77.14
2019-05-09T04:13:58.540Z,77.25
2019-05-09T04:16:27.678Z,78.44
2019-05-09T04:18:58.184Z,77.62
2019-05-09T04:21:28.011Z,77.01
2019-05-09T04:23:58.509Z,79.32
2019-05-09T04:26:28.548Z,78.47
2019-05-09T04:28:57.787Z,77.73
2019-05-09T04:31:28.032Z,77.91
2019-05-09T04:33:57.439Z,78.21
2019-05-09T04:36:41.168Z,77.86
2019-05-09T04:39:18.046Z,77.32
2019-05-09T04:41:42.400Z,79.18
2019-05-09T04:44:16.966Z,77.28
2019-05-09T04:46:42.765Z,77.44
2019-05-09T04:49:11.255Z,78.21
2019-05-09T04:51:39.707Z,78.01
2019-05-09T04:54:08.192Z,77.16
2019-05-09T04:56:38.351Z,77.11
2019-05-09T04:59:07.558Z,77.98
2019-05-09T05:01:38.959Z,77.11
2019-05-09T05:04:07.980Z,76.43
2019-05-09T05:06:40.260Z,77.71
2019-05-09T05:09:08.733Z,76.89
2019-05-09T05:11:38.319Z,76.96
2019-05-09T05:14:09.277Z,78.00
2019-05-09T05:16:39.161Z,76.82
2019-05-09T05:19:07.658Z,76.48
2019-05-09T05:21:37.793Z,76.58
2019-05-09T05:24:08.304Z,76.68
2019-05-09T05:26:38.031Z,76.66
2019-05-09T05:29:08.451Z,77.59
2019-05-09T05:31:38.812Z,77.02
2019-05-09T05:34:11.576Z,76.82
2019-05-09T05:36:40.046Z,76.89
2019-05-09T05:39:10.072Z,77.19
2019-05-09T05:41:38.552Z,76.53
2019-05-09T05:44:08.542Z,76.69
2019-05-09T05:46:55.391Z,76.59
2019-05-09T05:49:23.872Z,76.99
2019-05-09T05:51:52.343Z,76.46
2019-05-09T05:54:22.154Z,77.21
2019-05-09T05:56:50.776Z,75.86
2019-05-09T05:59:19.504Z,75.94
2019-05-09T06:01:48.085Z,75.80
2019-05-09T06:04:18.624Z,75.96
2019-05-09T06:06:48.085Z,75.33
2019-05-09T06:09:18.958Z,75.92
2019-05-09T06:11:48.448Z,75.52
2019-05-09T06:14:18.456Z,75.81
2019-05-09T06:16:48.555Z,76.23
2019-05-09T06:19:17.987Z,75.21
2019-05-09T06:21:48.559Z,75.51
2019-05-09T06:24:17.813Z,75.10
2019-05-09T06:26:47.901Z,75.62
2019-05-09T06:29:17.821Z,74.56
2019-05-09T06:31:48.447Z,74.56
2019-05-09T06:34:18.807Z,74.65
2019-05-09T06:36:48.885Z,73.95
2019-05-09T06:39:17.965Z,73.66
2019-05-09T06:41:48.341Z,74.04
2019-05-09T06:44:24.126Z,73.69
2019-05-09T06:47:00.204Z,73.51
2019-05-09T06:49:31.945Z,73.17
2019-05-09T06:52:00.657Z,73.01
2019-05-09T06:54:29.264Z,72.85
2019-05-09T06:56:58.604Z,72.91
2019-05-09T06:59:28.341Z,72.43
2019-05-09T07:01:58.727Z,72.75
2019-05-09T07:04:43.780Z,72.67
2019-05-09T07:07:17.630Z,72.14
2019-05-09T07:09:48.159Z,71.78
2019-05-09T07:12:18.084Z,72.08
2019-05-09T07:14:48.716Z,71.76
2019-05-09T07:17:18.359Z,71.89
2019-05-09T07:19:48.772Z,71.73
2019-05-09T07:22:18.933Z,71.43
2019-05-09T07:25:06.503Z,71.33
2019-05-09T07:27:39.187Z,71.28
2019-05-09T07:30:37.672Z,71.02
2019-05-09T07:33:23.068Z,70.93
2019-05-09T07:35:51.548Z,70.98
2019-05-09T07:38:30.382Z,70.94
2019-05-09T07:41:00.059Z,70.82
2019-05-09T07:43:28.787Z,70.68
2019-05-09T07:46:08.850Z,70.53
2019-05-09T07:48:38.685Z,70.51
2019-05-09T07:51:08.030Z,70.48
2019-05-09T07:53:38.065Z,71.03
2019-05-09T07:56:07.990Z,70.48
2019-05-09T07:58:37.728Z,70.58
2019-05-09T08:01:08.558Z,70.63
2019-05-09T08:03:38.424Z,70.64
2019-05-09T08:06:08.757Z,70.30
2019-05-09T08:08:38.474Z,70.82
2019-05-09T08:11:08.829Z,70.48
2019-05-09T08:13:39.236Z,70.24
2019-05-09T08:16:12.395Z,70.37
2019-05-09T08:18:38.012Z,70.18
2019-05-09T08:21:08.435Z,70.43
2019-05-09T08:23:37.984Z,70.33
2019-05-09T08:26:08.833Z,70.13
2019-05-09T08:28:38.935Z,70.12
2019-05-09T08:31:08.306Z,70.10
2019-05-09T08:33:38.046Z,70.10
2019-05-09T08:36:08.755Z,69.67
2019-05-09T08:38:39.018Z,70.09
2019-05-09T08:41:09.313Z,70.27
2019-05-09T08:43:39.360Z,70.09
2019-05-09T08:46:08.262Z,69.68
2019-05-09T08:48:37.826Z,69.33
2019-05-09T08:51:08.965Z,69.11
2019-05-09T08:53:38.158Z,69.55
2019-05-09T08:56:08.976Z,68.78
2019-05-09T08:58:38.219Z,69.14
2019-05-09T09:01:09.836Z,66.96
2019-05-09T09:03:37.771Z,68.59
2019-05-09T09:06:08.246Z,67.41
2019-05-09T09:08:37.976Z,68.17
2019-05-09T09:11:08.558Z,67.53
2019-05-09T09:13:37.840Z,66.18
2019-05-09T09:16:15.697Z,66.48
2019-05-09T09:18:38.772Z,65.79
2019-05-09T09:21:08.088Z,65.76
2019-05-09T09:23:44.152Z,65.40
2019-05-09T09:26:08.201Z,65.63
2019-05-09T09:28:37.977Z,64.45
2019-05-09T09:31:08.221Z,64.64
2019-05-09T09:33:37.646Z,64.86
2019-05-09T09:36:08.563Z,64.38
2019-05-09T09:38:37.566Z,63.94
2019-05-09T09:41:07.841Z,64.50
2019-05-09T09:43:38.388Z,60.98
2019-05-09T09:46:14.057Z,62.18
2019-05-09T09:48:38.925Z,62.08
2019-05-09T09:51:08.108Z,61.63
2019-05-09T09:53:38.438Z,60.37
2019-05-09T09:56:08.770Z,60.89
2019-05-09T09:58:38.026Z,60.18
2019-05-09T10:01:21.342Z,58.99
2019-05-09T10:03:51.584Z,59.75
2019-05-09T10:06:20.047Z,59.32
2019-05-09T10:08:49.100Z,59.50
2019-05-09T10:11:18.047Z,59.90
2019-05-09T10:13:48.089Z,59.86
2019-05-09T10:16:31.927Z,60.01
2019-05-09T10:19:02.869Z,59.86
2019-05-09T10:21:32.996Z,59.43
2019-05-09T10:24:01.478Z,59.77
2019-05-09T10:26:29.971Z,59.97
2019-05-09T10:28:58.536Z,60.11
2019-05-09T10:31:28.267Z,59.95
2019-05-09T10:33:58.054Z,59.83
2019-05-09T10:36:27.838Z,59.96
2019-05-09T10:38:58.504Z,60.13
2019-05-09T10:41:26.687Z,58.74
2019-05-09T10:43:57.872Z,58.91
2019-05-09T10:46:46.336Z,57.88
2019-05-09T10:49:00.009Z,58.55
2019-05-09T10:51:28.566Z,58.52
2019-05-09T10:53:58.804Z,58.25
2019-05-09T10:56:28.035Z,58.13
2019-05-09T10:58:58.424Z,58.49
2019-05-09T11:01:29.491Z,58.67
2019-05-09T11:03:58.967Z,60.57
2019-05-09T11:06:28.772Z,62.30
2019-05-09T11:08:58.560Z,64.09
2019-05-09T11:11:28.463Z,65.49
2019-05-09T11:13:58.785Z,66.03
2019-05-09T11:16:41.294Z,65.75
2019-05-09T11:18:58.490Z,66.71
2019-05-09T11:21:28.538Z,67.30
2019-05-09T11:23:58.281Z,66.20
2019-05-09T11:26:28.415Z,66.78
2019-05-09T11:28:58.783Z,65.76
2019-05-09T11:31:29.518Z,67.03
2019-05-09T11:33:58.159Z,66.11
2019-05-09T11:36:26.785Z,66.78
2019-05-09T11:38:55.257Z,67.63
2019-05-09T11:41:23.769Z,66.36
2019-05-09T11:43:52.223Z,66.65
2019-05-09T11:46:20.729Z,66.42
2019-05-09T11:48:49.229Z,66.42
2019-05-09T11:51:20.582Z,66.02
2019-05-09T11:53:48.768Z,66.82
2019-05-09T11:56:18.137Z,65.77
2019-05-09T11:58:48.179Z,65.84
2019-05-09T12:01:19.095Z,65.53
2019-05-09T12:03:49.917Z,65.37
2019-05-09T12:06:20.206Z,65.44
2019-05-09T12:08:48.438Z,66.11
2019-05-09T12:11:18.151Z,65.85
2019-05-09T12:13:48.496Z,65.42
2019-05-09T12:16:18.377Z,64.05
2019-05-09T12:18:49.060Z,63.28
2019-05-09T12:21:19.170Z,63.80
2019-05-09T12:23:48.775Z,63.57
2019-05-09T12:26:18.050Z,62.77
2019-05-09T12:28:48.403Z,62.31
2019-05-09T12:31:18.087Z,62.37
2019-05-09T12:33:48.280Z,62.18
2019-05-09T12:36:19.178Z,61.46
2019-05-09T12:38:49.674Z,61.71
2019-05-09T12:41:18.917Z,61.25
2019-05-09T12:43:47.816Z,61.30
2019-05-09T12:46:16.291Z,61.68
2019-05-09T12:48:44.759Z,61.32
2019-05-09T12:51:13.335Z,61.47
2019-05-09T12:53:41.812Z,61.68
2019-05-09T12:56:11.088Z,61.32
2019-05-09T12:58:39.569Z,60.82
2019-05-09T13:01:08.039Z,61.31
2019-05-09T13:03:38.176Z,61.35
2019-05-09T13:06:08.142Z,60.80
2019-05-09T13:08:38.472Z,60.29
2019-05-09T13:11:08.056Z,60.67
2019-05-09T13:13:40.890Z,60.38
2019-05-09T13:16:14.131Z,60.80
2019-05-09T13:19:02.475Z,60.39
2019-05-09T13:21:32.897Z,60.21
2019-05-09T13:23:59.988Z,60.13
2019-05-09T13:26:28.970Z,60.18
2019-05-09T13:28:58.843Z,60.47
2019-05-09T13:31:29.403Z,59.53
2019-05-09T13:33:58.669Z,59.04
2019-05-09T13:36:28.450Z,57.42
2019-05-09T13:39:04.216Z,57.84
2019-05-09T13:41:27.486Z,57.20
2019-05-09T13:43:59.375Z,58.09
2019-05-09T13:46:28.255Z,57.62
2019-05-09T13:49:08.261Z,56.86
2019-05-09T13:51:26.714Z,56.11
2019-05-09T13:53:55.293Z,56.86
2019-05-09T13:56:23.952Z,56.92
2019-05-09T13:58:52.450Z,57.33
2019-05-09T14:01:20.945Z,56.72
2019-05-09T14:03:49.500Z,56.54
2019-05-09T14:06:17.989Z,56.97
2019-05-09T14:08:48.962Z,56.39
2019-05-09T14:11:19.064Z,56.03
2019-05-09T14:13:48.830Z,56.55
2019-05-09T14:16:22.167Z,55.65
2019-05-09T14:18:48.609Z,56.17
2019-05-09T14:21:21.555Z,55.67
2019-05-09T14:24:01.047Z,56.10
2019-05-09T14:26:18.186Z,55.90
2019-05-09T14:28:48.898Z,55.97
2019-05-09T14:31:18.580Z,56.00
2019-05-09T14:33:47.778Z,55.13
2019-05-09T14:36:16.504Z,55.72
2019-05-09T14:38:45.061Z,54.28
2019-05-09T14:41:13.530Z,54.82
2019-05-09T14:43:42.064Z,54.21
2019-05-09T14:46:10.480Z,53.75
2019-05-09T14:48:38.973Z,53.75
2019-05-09T14:51:07.835Z,54.08
2019-05-09T14:53:38.918Z,53.61
2019-05-09T14:56:08.746Z,53.85
2019-05-09T14:58:38.837Z,53.47
2019-05-09T15:01:08.589Z,52.02
2019-05-09T15:03:38.833Z,52.82
2019-05-09T15:06:07.703Z,52.63
2019-05-09T15:08:38.164Z,52.13
2019-05-09T15:11:09.848Z,53.12
2019-05-09T15:13:36.655Z,52.49
2019-05-09T15:16:05.131Z,52.67
2019-05-09T15:18:33.607Z,52.73
2019-05-09T15:21:02.102Z,52.81
2019-05-09T15:23:30.603Z,52.10
2019-05-09T15:25:59.096Z,52.38
2019-05-09T15:28:29.089Z,52.34
2019-05-09T15:30:59.330Z,52.58
2019-05-09T15:33:28.096Z,52.66
2019-05-09T15:35:58.884Z,52.90
2019-05-09T15:38:29.039Z,52.56
2019-05-09T15:40:57.459Z,52.54
2019-05-09T15:43:26.679Z,52.21
2019-05-09T15:46:02.966Z,52.22
2019-05-09T15:48:31.426Z,52.39
2019-05-09T15:50:59.907Z,52.41
2019-05-09T15:53:28.375Z,52.55
2019-05-09T15:55:58.763Z,52.11
2019-05-09T15:58:28.762Z,52.28
2019-05-09T16:00:58.983Z,52.39
2019-05-09T16:03:27.986Z,52.63
2019-05-09T16:05:58.430Z,51.85
2019-05-09T16:08:28.783Z,51.83
2019-05-09T16:10:58.103Z,50.51
2019-05-09T16:13:28.522Z,49.42
2019-05-09T16:15:57.696Z,49.92
2019-05-09T16:18:28.649Z,48.71
2019-05-09T16:20:58.004Z,48.79
2019-05-09T16:23:28.968Z,48.70
2019-05-09T16:25:58.574Z,47.37
2019-05-09T16:28:27.194Z,48.51
2019-05-09T16:30:55.683Z,48.37
2019-05-09T16:33:24.142Z,47.98
2019-05-09T16:35:53.200Z,47.65
2019-05-09T16:38:21.762Z,48.04
2019-05-09T16:40:50.267Z,48.50
2019-05-09T16:43:18.734Z,47.93
2019-05-09T16:45:47.825Z,48.50
2019-05-09T16:48:17.883Z,47.56
2019-05-09T16:50:57.658Z,48.63
2019-05-09T16:53:18.555Z,47.60
2019-05-09T16:55:47.281Z,47.83
2019-05-09T16:58:18.568Z,47.97
2019-05-09T17:00:54.204Z,47.60
2019-05-09T17:03:22.681Z,47.32
2019-05-09T17:05:51.170Z,48.15
2019-05-09T17:08:19.651Z,47.89
2019-05-09T17:10:48.814Z,47.51
2019-05-09T17:13:19.345Z,47.91
2019-05-09T17:15:48.218Z,47.74
2019-05-09T17:18:18.953Z,47.61
2019-05-09T17:21:17.815Z,47.70
2019-05-09T17:23:35.081Z,47.65
2019-05-09T17:26:03.631Z,47.91
2019-05-09T17:28:32.097Z,47.98
2019-05-09T17:31:00.689Z,48.10
2019-05-09T17:33:29.149Z,48.15
2019-05-09T17:35:57.938Z,47.91
2019-05-09T17:38:27.809Z,48.16
2019-05-09T17:40:57.727Z,48.22
2019-05-09T17:43:27.807Z,48.45
2019-05-09T17:45:58.398Z,48.67
2019-05-09T17:48:28.543Z,48.44
2019-05-09T17:50:58.001Z,50.05
2019-05-09T17:53:29.283Z,51.74
2019-05-09T17:55:58.675Z,51.75
2019-05-09T17:58:32.488Z,52.12
2019-05-09T18:00:57.659Z,53.38
2019-05-09T18:03:28.886Z,53.83
2019-05-09T18:05:57.696Z,54.62
2019-05-09T18:08:28.321Z,54.43
2019-05-09T18:10:58.240Z,55.54
2019-05-09T18:13:29.770Z,55.13
2019-05-09T18:15:57.218Z,57.34
2019-05-09T18:18:28.155Z,55.75
2019-05-09T18:20:58.052Z,56.49
2019-05-09T18:23:28.330Z,56.51
2019-05-09T18:25:58.522Z,56.39
2019-05-09T18:28:29.114Z,56.73
2019-05-09T18:30:58.502Z,57.19
2019-05-09T18:33:34.832Z,58.65
2019-05-09T18:36:03.311Z,59.30
2019-05-09T18:38:33.914Z,58.37
2019-05-09T18:41:02.762Z,59.83
2019-05-09T18:43:31.220Z,60.88
2019-05-09T18:45:59.700Z,60.61
2019-05-09T18:48:28.191Z,60.98
2019-05-09T18:50:56.655Z,62.31
2019-05-09T18:53:25.133Z,61.59
2019-05-09T18:55:53.590Z,62.86
2019-05-09T18:58:22.114Z,61.76
2019-05-09T19:00:51.160Z,62.60
2019-05-09T19:03:19.643Z,61.70
2019-05-09T19:05:48.116Z,63.55
2019-05-09T19:08:16.597Z,62.35
2019-05-09T19:10:45.077Z,61.95
2019-05-09T19:13:13.591Z,61.67
2019-05-09T19:15:43.713Z,62.17
2019-05-09T19:18:13.841Z,61.75
2019-05-09T19:20:59.121Z,62.24
2019-05-09T19:23:27.737Z,62.13
2019-05-09T19:25:57.826Z,61.72
2019-05-09T19:28:26.305Z,61.84
2019-05-09T19:30:54.783Z,62.54
2019-05-09T19:33:23.269Z,62.15
2019-05-09T19:35:51.746Z,62.48
2019-05-09T19:38:20.271Z,63.65
2019-05-09T19:40:48.707Z,63.20
2019-05-09T19:43:17.179Z,63.25
2019-05-09T19:45:45.667Z,63.19
2019-05-09T19:48:14.215Z,64.29
2019-05-09T19:50:42.709Z,63.40
2019-05-09T19:53:11.181Z,64.23
2019-05-09T19:55:39.815Z,64.09
2019-05-09T19:58:08.346Z,64.22
2019-05-09T20:00:36.870Z,64.43
2019-05-09T20:03:05.349Z,64.84
2019-05-09T20:05:33.839Z,64.27
2019-05-09T20:08:02.306Z,64.49
2019-05-09T20:10:48.482Z,65.24
2019-05-09T20:13:18.617Z,65.42
2019-05-09T20:15:47.106Z,65.92
2019-05-09T20:18:19.986Z,66.32
2019-05-09T20:20:49.543Z,64.96
2019-05-09T20:23:18.020Z,65.38
2019-05-09T20:25:46.507Z,66.09
2019-05-09T20:28:15.113Z,65.11
2019-05-09T20:30:43.647Z,65.74
2019-05-09T20:33:12.150Z,66.50
2019-05-09T20:35:40.815Z,66.19
2019-05-09T20:38:09.426Z,67.15
2019-05-09T20:40:38.650Z,65.58
2019-05-09T20:43:07.308Z,66.61
2019-05-09T20:45:35.973Z,66.71
2019-05-09T20:48:05.364Z,66.98
2019-05-09T20:50:34.412Z,66.73
2019-05-09T20:53:09.481Z,67.04
2019-05-09T20:55:35.423Z,68.96
2019-05-09T20:58:05.328Z,67.90
2019-05-09T21:00:34.026Z,67.90
2019-05-09T21:03:02.743Z,70.34
2019-05-09T21:05:31.429Z,68.56
2019-05-09T21:08:00.076Z,70.34
2019-05-09T21:10:28.755Z,68.85
2019-05-09T21:12:57.418Z,70.52
2019-05-09T21:15:26.107Z,68.78
2019-05-09T21:17:54.757Z,69.25
2019-05-09T21:20:23.416Z,68.74
2019-05-09T21:22:52.059Z,69.21
2019-05-09T21:25:20.774Z,68.64
2019-05-09T21:27:49.436Z,69.26
2019-05-09T21:30:18.529Z,68.06
2019-05-09T21:32:47.202Z,68.24
2019-05-09T21:35:15.999Z,68.15
2019-05-09T21:37:44.500Z,69.02
2019-05-09T21:40:13.414Z,68.91
2019-05-09T21:42:41.903Z,68.71
2019-05-09T21:45:10.433Z,69.67
2019-05-09T21:47:38.946Z,68.92
2019-05-09T21:50:07.753Z,68.76
2019-05-09T21:52:36.316Z,69.23
2019-05-09T21:55:05.418Z,68.50
2019-05-09T21:57:33.904Z,68.36
2019-05-09T22:00:02.364Z,69.55
2019-05-09T22:02:30.913Z,69.59
2019-05-09T22:04:59.390Z,68.81
2019-05-09T22:07:27.909Z,69.26
2019-05-09T22:09:56.388Z,71.26
2019-05-09T22:12:24.889Z,68.97
2019-05-09T22:14:53.825Z,69.42
2019-05-09T22:17:23.947Z,69.79
2019-05-09T22:19:52.396Z,69.92
2019-05-09T22:22:20.882Z,70.71
2019-05-09T22:24:49.343Z,70.77
2019-05-09T22:27:17.837Z,70.47
2019-05-09T22:29:46.306Z,72.25
2019-05-09T22:32:14.804Z,71.64
2019-05-09T22:34:43.284Z,70.56
2019-05-09T22:37:11.768Z,71.60
2019-05-09T22:39:40.232Z,73.38
2019-05-09T22:42:08.732Z,71.64
2019-05-09T22:44:37.200Z,73.58
2019-05-09T22:47:05.736Z,73.17
2019-05-09T22:49:34.211Z,72.64
2019-05-09T22:52:02.711Z,73.04
2019-05-09T22:54:31.175Z,73.40
2019-05-09T22:56:59.676Z,72.42
2019-05-09T22:59:28.149Z,74.55
2019-05-09T23:01:56.636Z,73.88
2019-05-09T23:04:25.096Z,72.79
2019-05-09T23:06:53.686Z,72.74
2019-05-09T23:09:22.321Z,72.48
2019-05-09T23:11:50.774Z,72.16
2019-05-09T23:14:19.257Z,72.59
2019-05-09T23:16:50.435Z,72.25
2019-05-09T23:19:17.957Z,72.78
2019-05-09T23:21:46.419Z,72.22
2019-05-09T23:24:28.023Z,71.78
2019-05-09T23:26:46.755Z,72.75
2019-05-09T23:29:15.241Z,71.90
2019-05-09T23:32:00.086Z,72.46
2019-05-09T23:34:28.561Z,72.61
2019-05-09T23:36:57.034Z,73.18
2019-05-09T23:39:27.311Z,73.88
2019-05-09T23:41:55.815Z,75.48
2019-05-09T23:44:24.286Z,73.67
2019-05-09T23:46:52.758Z,72.96
2019-05-09T23:49:21.253Z,73.34
2019-05-09T23:51:50.061Z,73.46
2019-05-09T23:54:46.395Z,73.78
2019-05-09T23:57:29.300Z,73.80
